Time;durP1;ratioP1;P1;durP2;ratioP2;P2;SDS_P1;SDS_P2;PMS_P1;PMS_P2;Temp;Humidity;BMP_temperature;BMP_pressure;BME280_temperature;BME280_humidity;BME280_pressure;Samples;Min_cycle;Max_cycle;Signal;HPM_P1;HPM_P2
2023/11/29 00:01:52;;;;;;;4.20;1.60;;;6.20;91.00;;;;;;4992859;28;20244;-44
2023/11/29 00:04:23;;;;;;;2.20;1.60;;;6.20;91.20;;;;;;4990735;28;20193;-43
2023/11/29 00:06:51;;;;;;;1.88;1.55;;;6.20;91.20;;;;;;4987983;28;20213;-48
2023/11/29 00:09:21;;;;;;;2.22;1.52;;;6.20;91.00;;;;;;4996920;28;20204;-45
2023/11/29 00:11:49;;;;;;;2.45;1.58;;;6.20;91.20;;;;;;4983943;28;20195;-45
2023/11/29 00:14:17;;;;;;;2.42;1.42;;;6.20;90.90;;;;;;4993348;28;20738;-45
2023/11/29 00:16:48;;;;;;;2.80;1.90;;;6.20;90.70;;;;;;5011908;28;20298;-45
2023/11/29 00:19:22;;;;;;;2.20;1.73;;;6.20;90.80;;;;;;5008334;28;20282;-44
2023/11/29 00:21:50;;;;;;;2.92;1.80;;;6.10;90.50;;;;;;5011733;28;20615;-46
2023/11/29 00:24:18;;;;;;;2.60;1.90;;;6.10;90.40;;;;;;5012549;28;20219;-45
2023/11/29 00:26:48;;;;;;;1.60;1.50;;;6.10;90.90;;;;;;5012078;28;20643;-44
2023/11/29 00:29:16;;;;;;;2.30;1.88;;;6.10;91.00;;;;;;5012371;28;20613;-45
2023/11/29 00:31:47;;;;;;;2.13;1.67;;;6.10;90.60;;;;;;5010966;28;20194;-44
2023/11/29 00:34:18;;;;;;;2.22;2.03;;;6.10;91.00;;;;;;5009730;28;20202;-49
2023/11/29 00:36:48;;;;;;;2.20;1.50;;;6.10;91.00;;;;;;5011924;28;20205;-46
2023/11/29 00:39:16;;;;;;;1.95;1.40;;;6.10;91.00;;;;;;5010900;28;20280;-45
2023/11/29 00:41:44;;;;;;;1.50;0.90;;;6.10;91.00;;;;;;5001293;28;20205;-47
2023/11/29 00:44:13;;;;;;;2.25;1.50;;;6.10;91.10;;;;;;5010852;28;20213;-45
2023/11/29 00:46:42;;;;;;;3.55;2.45;;;6.10;91.10;;;;;;5009183;28;20769;-44
2023/11/29 00:49:10;;;;;;;1.50;1.40;;;6.20;90.80;;;;;;5013113;28;20194;-47
2023/11/29 00:51:38;;;;;;;1.95;1.33;;;6.10;90.50;;;;;;5007427;28;20226;-46
2023/11/29 00:54:06;;;;;;;2.47;1.90;;;6.10;91.00;;;;;;5015691;28;20750;-46
2023/11/29 00:56:34;;;;;;;2.33;1.50;;;6.10;90.80;;;;;;5002431;28;20569;-45
2023/11/29 00:59:03;;;;;;;2.05;1.75;;;6.10;91.00;;;;;;5011938;28;20210;-44
2023/11/29 01:01:32;;;;;;;1.70;1.30;;;6.10;91.00;;;;;;5015811;28;20219;-44
2023/11/29 01:04:02;;;;;;;3.88;1.90;;;6.10;91.10;;;;;;5008509;28;20591;-44
2023/11/29 01:06:31;;;;;;;1.88;1.50;;;6.10;91.10;;;;;;5016069;28;20683;-43
2023/11/29 01:08:59;;;;;;;2.55;1.70;;;6.10;91.10;;;;;;5018989;28;20224;-46
2023/11/29 01:11:27;;;;;;;2.22;1.35;;;6.10;91.00;;;;;;5012119;28;20233;-44
2023/11/29 01:13:55;;;;;;;1.77;1.25;;;6.10;91.00;;;;;;5015190;28;20288;-43
2023/11/29 01:16:23;;;;;;;3.40;1.63;;;6.10;91.00;;;;;;5015788;28;20248;-45
2023/11/29 01:18:52;;;;;;;2.10;1.90;;;6.10;91.00;;;;;;5017848;28;20751;-44
2023/11/29 01:21:21;;;;;;;2.42;1.73;;;6.10;90.90;;;;;;5013068;28;20217;-44
2023/11/29 01:23:59;;;;;;;2.17;1.50;;;6.10;91.00;;;;;;5015150;28;20659;-45
2023/11/29 01:26:26;;;;;;;2.90;1.70;;;6.10;91.10;;;;;;5009217;28;20225;-47
2023/11/29 01:28:54;;;;;;;2.78;2.00;;;6.10;91.10;;;;;;5015233;28;20218;-43
2023/11/29 01:31:28;;;;;;;2.95;2.10;;;6.10;91.00;;;;;;5021378;28;20239;-44
2023/11/29 01:34:00;;;;;;;2.50;1.75;;;6.10;91.10;;;;;;5023190;28;20305;-45
2023/11/29 01:36:31;;;;;;;2.10;1.63;;;6.10;91.10;;;;;;5012590;28;20695;-44
2023/11/29 01:39:00;;;;;;;3.45;1.85;;;6.10;91.10;;;;;;5015370;28;20222;-46
2023/11/29 01:41:28;;;;;;;2.22;1.45;;;6.10;91.30;;;;;;5013907;28;20225;-43
2023/11/29 01:43:56;;;;;;;2.45;1.45;;;6.10;91.20;;;;;;5019349;28;20208;-43
2023/11/29 01:46:24;;;;;;;2.45;1.55;;;6.10;91.20;;;;;;5013147;28;20217;-44
2023/11/29 01:48:53;;;;;;;2.10;1.50;;;6.10;91.20;;;;;;5019830;28;20713;-46
2023/11/29 01:51:24;;;;;;;3.00;1.95;;;6.10;91.20;;;;;;5012466;28;20224;-44
2023/11/29 01:53:53;;;;;;;2.72;2.42;;;6.10;91.20;;;;;;5012598;28;20201;-46
2023/11/29 01:56:21;;;;;;;2.85;1.85;;;6.10;91.20;;;;;;5010436;28;20264;-47
2023/11/29 01:58:50;;;;;;;2.30;1.52;;;6.10;91.20;;;;;;5013706;28;20209;-43
2023/11/29 02:01:20;;;;;;;2.83;2.15;;;6.10;91.30;;;;;;5011953;28;20218;-43
2023/11/29 02:03:48;;;;;;;2.63;1.90;;;6.00;91.10;;;;;;5017393;28;20190;-45
2023/11/29 02:06:17;;;;;;;3.17;2.30;;;6.00;91.20;;;;;;5011910;28;20230;-46
2023/11/29 02:08:47;;;;;;;3.05;1.45;;;;;;;;;;5019032;28;20225;-47
2023/11/29 02:11:18;;;;;;;2.90;1.60;;;6.00;90.70;;;;;;5010590;28;20227;-46
2023/11/29 02:13:47;;;;;;;2.30;1.80;;;6.00;91.20;;;;;;5016976;28;20206;-45
2023/11/29 02:16:15;;;;;;;2.88;2.10;;;6.00;91.20;;;;;;5013314;28;20226;-46
2023/11/29 02:18:43;;;;;;;3.28;2.10;;;6.00;91.10;;;;;;5017761;28;20272;-43
2023/11/29 02:21:13;;;;;;;3.63;2.60;;;6.00;91.10;;;;;;5015866;28;20209;-44
2023/11/29 02:23:46;;;;;;;3.47;2.17;;;6.00;91.10;;;;;;5024218;28;20287;-47
2023/11/29 02:26:16;;;;;;;2.17;1.70;;;6.00;91.20;;;;;;5010103;28;20228;-44
2023/11/29 02:28:45;;;;;;;1.80;1.70;;;6.00;91.30;;;;;;5013490;28;20221;-44
2023/11/29 02:31:13;;;;;;;3.97;2.50;;;6.00;91.30;;;;;;5017003;28;20243;-44
2023/11/29 02:33:41;;;;;;;2.65;2.03;;;6.00;91.30;;;;;;5019487;28;20205;-44
2023/11/29 02:36:09;;;;;;;3.72;2.10;;;6.00;91.30;;;;;;5010860;28;20723;-44
2023/11/29 02:38:37;;;;;;;2.40;1.83;;;6.00;91.30;;;;;;5005085;28;20214;-44
2023/11/29 02:41:06;;;;;;;3.33;2.10;;;6.00;91.30;;;;;;5010507;28;20218;-46
2023/11/29 02:43:35;;;;;;;3.08;1.80;;;6.00;91.30;;;;;;5017344;28;20251;-46
2023/11/29 02:46:03;;;;;;;3.22;2.28;;;6.00;91.30;;;;;;5018814;28;20639;-44
2023/11/29 02:48:31;;;;;;;2.55;2.08;;;6.00;91.30;;;;;;5011979;28;20226;-44
2023/11/29 02:51:00;;;;;;;2.08;1.50;;;6.00;91.30;;;;;;5013300;28;20299;-45
2023/11/29 02:53:28;;;;;;;6.90;2.75;;;6.00;91.80;;;;;;5013810;28;20205;-45
2023/11/29 02:55:57;;;;;;;2.28;1.70;;;6.00;91.30;;;;;;5005031;28;20231;-44
2023/11/29 02:58:25;;;;;;;3.00;2.10;;;6.00;91.30;;;;;;5018108;28;20222;-45
2023/11/29 03:00:54;;;;;;;4.18;2.80;;;6.00;91.30;;;;;;5013092;28;20233;-44
2023/11/29 03:03:22;;;;;;;2.53;1.90;;;6.00;91.30;;;;;;5009729;28;20195;-46
2023/11/29 03:05:51;;;;;;;2.35;1.80;;;6.00;91.30;;;;;;5019150;28;20221;-45
2023/11/29 03:08:19;;;;;;;3.38;2.63;;;5.90;91.30;;;;;;5013906;28;20309;-45
2023/11/29 03:10:47;;;;;;;1.98;1.27;;;5.90;91.20;;;;;;5009964;28;20638;-45
2023/11/29 03:13:15;;;;;;;2.15;1.95;;;5.90;91.30;;;;;;5014442;28;20222;-44
2023/11/29 03:15:49;;;;;;;3.40;2.15;;;5.90;91.30;;;;;;5014833;28;20221;-44
2023/11/29 03:18:18;;;;;;;2.80;2.17;;;5.90;91.30;;;;;;5012013;28;20587;-45
2023/11/29 03:20:46;;;;;;;3.22;1.80;;;5.90;91.30;;;;;;5012602;28;20595;-48
2023/11/29 03:23:14;;;;;;;2.97;1.88;;;5.90;91.30;;;;;;5019015;28;20217;-47
2023/11/29 03:25:43;;;;;;;2.55;1.63;;;5.90;91.30;;;;;;5009337;28;20260;-47
2023/11/29 03:28:11;;;;;;;2.72;2.15;;;5.90;91.40;;;;;;5013495;28;20611;-46
2023/11/29 03:30:41;;;;;;;3.30;2.42;;;5.90;91.30;;;;;;5011471;28;20222;-46
2023/11/29 03:33:09;;;;;;;2.63;1.52;;;5.90;91.30;;;;;;5020384;28;20236;-45
2023/11/29 03:35:38;;;;;;;2.80;2.25;;;5.90;91.30;;;;;;5014887;28;20581;-45
2023/11/29 03:38:06;;;;;;;3.65;2.92;;;5.90;91.30;;;;;;5009067;28;20548;-44
2023/11/29 03:40:35;;;;;;;3.33;2.50;;;5.90;91.30;;;;;;5006470;28;20253;-43
2023/11/29 03:43:03;;;;;;;4.97;2.80;;;5.90;91.30;;;;;;5012041;28;20354;-44
2023/11/29 03:45:31;;;;;;;5.53;2.55;;;5.90;91.80;;;;;;5016802;28;20469;-44
2023/11/29 03:47:59;;;;;;;5.22;1.92;;;5.90;91.30;;;;;;5011847;28;20654;-44
2023/11/29 03:50:27;;;;;;;4.18;2.95;;;5.90;91.30;;;;;;5005616;28;20216;-47
2023/11/29 03:52:56;;;;;;;2.40;1.77;;;5.90;91.30;;;;;;5013072;28;20194;-47
2023/11/29 03:55:24;;;;;;;3.67;2.25;;;5.90;91.40;;;;;;5009100;28;20221;-44
2023/11/29 03:57:52;;;;;;;2.30;1.75;;;5.90;91.40;;;;;;5008293;28;20303;-44
2023/11/29 04:00:21;;;;;;;4.13;2.30;;;5.90;91.30;;;;;;5012995;28;20229;-45
2023/11/29 04:02:49;;;;;;;3.70;2.03;;;5.90;91.40;;;;;;5012000;28;20209;-43
2023/11/29 04:05:17;;;;;;;2.47;1.90;;;5.90;91.40;;;;;;5022903;28;20218;-46
2023/11/29 04:07:45;;;;;;;2.42;2.15;;;5.90;91.40;;;;;;5011976;28;20226;-45
2023/11/29 04:10:18;;;;;;;5.53;2.28;;;5.90;91.40;;;;;;5009606;28;20218;-49
2023/11/29 04:12:46;;;;;;;2.95;1.80;;;5.90;91.30;;;;;;5011391;28;20209;-44
2023/11/29 04:15:14;;;;;;;2.22;1.92;;;5.90;91.40;;;;;;5014120;28;20237;-44
2023/11/29 04:17:42;;;;;;;3.88;2.17;;;5.90;91.40;;;;;;5018977;28;20703;-44
2023/11/29 04:20:11;;;;;;;2.53;2.10;;;5.90;91.40;;;;;;5010350;28;20226;-44
2023/11/29 04:22:42;;;;;;;5.03;2.45;;;5.90;91.40;;;;;;5013185;28;20190;-47
2023/11/29 04:25:11;;;;;;;2.53;1.65;;;5.90;91.30;;;;;;5010957;28;20225;-47
2023/11/29 04:27:43;;;;;;;2.53;2.20;;;5.90;91.40;;;;;;5013076;28;20218;-46
2023/11/29 04:30:11;;;;;;;2.78;1.95;;;5.90;91.40;;;;;;5011651;28;20232;-43
2023/11/29 04:32:40;;;;;;;3.65;1.70;;;5.80;91.30;;;;;;5004175;28;20229;-46
2023/11/29 04:35:09;;;;;;;2.17;1.50;;;5.80;91.40;;;;;;5011208;28;20312;-43
2023/11/29 04:37:37;;;;;;;2.83;1.60;;;5.80;91.40;;;;;;5015119;28;20222;-43
2023/11/29 04:40:07;;;;;;;2.70;1.63;;;5.80;91.30;;;;;;5019455;28;20229;-49
2023/11/29 04:42:35;;;;;;;3.67;1.95;;;5.80;91.40;;;;;;5009481;28;20202;-46
2023/11/29 04:45:08;;;;;;;2.42;1.63;;;5.80;91.40;;;;;;5026183;28;20213;-44
2023/11/29 04:47:36;;;;;;;2.80;2.17;;;5.80;91.40;;;;;;5016862;28;20696;-47
2023/11/29 04:50:05;;;;;;;3.08;1.70;;;5.80;91.40;;;;;;5014203;28;20225;-44
2023/11/29 04:52:34;;;;;;;2.60;1.70;;;5.80;91.40;;;;;;5017118;28;20279;-46
2023/11/29 04:55:02;;;;;;;4.25;2.10;;;5.80;91.40;;;;;;5022762;28;20280;-47
2023/11/29 04:57:30;;;;;;;3.40;2.38;;;5.80;91.40;;;;;;5014252;28;20692;-45
2023/11/29 04:59:58;;;;;;;3.00;1.65;;;5.80;91.40;;;;;;5014548;28;20238;-46
2023/11/29 05:02:28;;;;;;;3.33;2.47;;;5.80;91.40;;;;;;5014507;28;20281;-45
2023/11/29 05:04:56;;;;;;;2.28;2.08;;;5.80;91.40;;;;;;5013230;28;20225;-43
2023/11/29 05:07:24;;;;;;;2.58;2.03;;;5.80;91.40;;;;;;5016393;28;20543;-44
2023/11/29 05:09:53;;;;;;;3.03;2.47;;;5.80;91.40;;;;;;5017241;28;20489;-44
2023/11/29 05:12:21;;;;;;;2.60;1.92;;;5.80;91.40;;;;;;5013044;28;20231;-45
2023/11/29 05:14:49;;;;;;;2.10;1.90;;;5.80;91.50;;;;;;5015684;28;20229;-45
2023/11/29 05:17:17;;;;;;;2.97;1.60;;;5.80;91.40;;;;;;5017405;28;20222;-45
2023/11/29 05:19:46;;;;;;;3.60;2.10;;;5.80;91.50;;;;;;5013276;28;20217;-44
2023/11/29 05:22:14;;;;;;;4.55;3.00;;;5.80;91.40;;;;;;5016949;28;20198;-44
2023/11/29 05:24:43;;;;;;;3.97;2.60;;;5.80;91.40;;;;;;5019742;28;20580;-46
2023/11/29 05:27:13;;;;;;;3.90;2.63;;;5.80;91.40;;;;;;5017815;28;20578;-44
2023/11/29 05:29:41;;;;;;;2.40;1.73;;;5.80;91.40;;;;;;5015899;28;20225;-45
2023/11/29 05:32:09;;;;;;;2.65;2.15;;;5.80;91.40;;;;;;5016539;28;20293;-45
2023/11/29 05:34:38;;;;;;;2.60;2.08;;;5.80;91.40;;;;;;5014578;28;20287;-50
2023/11/29 05:37:09;;;;;;;4.10;2.25;;;5.80;91.40;;;;;;5012250;28;20426;-44
2023/11/29 05:39:40;;;;;;;3.50;2.28;;;5.80;91.50;;;;;;5013705;28;20225;-46
2023/11/29 05:42:08;;;;;;;3.00;2.25;;;5.80;91.50;;;;;;5012255;28;20639;-45
2023/11/29 05:44:37;;;;;;;3.60;1.98;;;5.80;91.40;;;;;;5013039;28;20603;-46
2023/11/29 05:47:06;;;;;;;3.72;1.50;;;5.80;91.50;;;;;;5015174;28;20250;-47
2023/11/29 05:49:34;;;;;;;2.50;1.63;;;5.80;91.40;;;;;;5011128;28;20190;-44
2023/11/29 05:52:02;;;;;;;2.45;2.00;;;5.80;91.40;;;;;;5015582;28;20198;-45
2023/11/29 05:54:32;;;;;;;2.97;2.15;;;5.80;91.40;;;;;;5014940;28;20244;-44
2023/11/29 05:57:03;;;;;;;2.30;1.67;;;5.80;91.40;;;;;;5010753;28;20254;-49
2023/11/29 05:59:31;;;;;;;3.90;2.10;;;5.80;91.50;;;;;;5014982;28;20193;-45
2023/11/29 06:01:59;;;;;;;5.38;2.20;;;5.80;91.50;;;;;;5019041;28;20276;-44
2023/11/29 06:04:27;;;;;;;2.45;2.13;;;5.80;91.40;;;;;;5006935;28;20216;-45
2023/11/29 06:06:56;;;;;;;3.22;2.88;;;5.80;91.40;;;;;;5016094;28;20221;-45
2023/11/29 06:09:28;;;;;;;3.30;2.40;;;5.80;91.40;;;;;;5011428;28;20200;-44
2023/11/29 06:11:58;;;;;;;5.20;2.40;;;5.80;91.50;;;;;;5008857;28;20911;-44
2023/11/29 06:14:26;;;;;;;10.15;2.85;;;5.80;91.60;;;;;;5013499;28;20287;-44
2023/11/29 06:16:55;;;;;;;3.95;2.30;;;5.80;91.60;;;;;;5013441;28;20191;-44
2023/11/29 06:19:23;;;;;;;3.58;2.55;;;5.80;91.60;;;;;;5014406;28;20778;-44
2023/11/29 06:21:54;;;;;;;4.57;2.10;;;5.80;91.60;;;;;;5021287;28;20237;-44
2023/11/29 06:24:22;;;;;;;3.10;2.45;;;5.80;91.60;;;;;;5013794;28;20248;-46
2023/11/29 06:26:50;;;;;;;4.20;3.13;;;5.80;91.70;;;;;;5011124;28;20232;-46
2023/11/29 06:29:20;;;;;;;2.63;1.90;;;5.80;91.70;;;;;;5015821;28;20191;-44
2023/11/29 06:31:48;;;;;;;3.70;2.20;;;5.80;91.70;;;;;;5012996;28;20225;-47
2023/11/29 06:34:16;;;;;;;3.05;2.00;;;5.80;91.70;;;;;;5016714;28;20253;-47
2023/11/29 06:36:44;;;;;;;3.33;2.15;;;5.80;91.70;;;;;;5014552;28;20296;-45
2023/11/29 06:39:12;;;;;;;3.67;1.88;;;5.80;91.70;;;;;;5015508;28;20194;-44
2023/11/29 06:41:41;;;;;;;3.15;2.40;;;5.80;91.80;;;;;;5003903;28;20210;-45
2023/11/29 06:44:10;;;;;;;3.38;2.45;;;5.80;91.80;;;;;;5016057;28;20289;-45
2023/11/29 06:46:40;;;;;;;3.20;2.05;;;5.70;92.30;;;;;;5016079;28;20217;-45
2023/11/29 06:49:09;;;;;;;4.50;2.33;;;5.80;91.80;;;;;;5013901;28;20245;-45
2023/11/29 06:51:38;;;;;;;2.92;1.98;;;5.70;91.80;;;;;;5014853;28;20225;-45
2023/11/29 06:54:06;;;;;;;2.15;1.65;;;5.70;91.80;;;;;;5016334;28;20190;-47
2023/11/29 06:56:34;;;;;;;2.50;1.80;;;5.80;91.80;;;;;;5012047;28;20296;-45
2023/11/29 06:59:04;;;;;;;4.82;2.05;;;5.70;91.80;;;;;;5015503;28;20296;-44
2023/11/29 07:01:32;;;;;;;3.78;2.53;;;5.70;91.80;;;;;;4996714;28;20229;-43
2023/11/29 07:04:03;;;;;;;2.88;1.90;;;5.70;91.80;;;;;;4993669;28;20261;-45
2023/11/29 07:06:32;;;;;;;2.88;2.20;;;5.70;91.80;;;;;;4974989;28;20762;-44
2023/11/29 07:09:00;;;;;;;3.30;2.60;;;5.70;91.80;;;;;;4994057;28;20264;-49
2023/11/29 07:11:30;;;;;;;3.08;2.30;;;5.70;91.80;;;;;;4992633;28;20296;-44
2023/11/29 07:13:58;;;;;;;2.65;2.20;;;5.70;91.80;;;;;;4996695;28;20195;-44
2023/11/29 07:16:26;;;;;;;3.65;2.05;;;5.70;91.80;;;;;;4992697;28;20224;-44
2023/11/29 07:18:54;;;;;;;2.90;1.98;;;5.70;91.80;;;;;;4991581;28;20692;-49
2023/11/29 07:21:23;;;;;;;2.47;2.20;;;5.70;91.80;;;;;;4996031;28;20238;-44
2023/11/29 07:23:52;;;;;;;2.20;1.80;;;5.70;91.80;;;;;;4995490;28;20204;-45
2023/11/29 07:26:20;;;;;;;4.55;3.17;;;5.70;91.80;;;;;;4993130;28;20309;-45
2023/11/29 07:28:48;;;;;;;3.28;2.03;;;5.70;91.80;;;;;;4994786;28;20215;-45
2023/11/29 07:31:16;;;;;;;3.95;2.10;;;5.70;91.80;;;;;;4998857;28;20213;-44
2023/11/29 07:33:44;;;;;;;2.17;1.98;;;5.70;91.80;;;;;;4994542;28;20191;-44
2023/11/29 07:36:13;;;;;;;2.83;2.35;;;5.70;91.80;;;;;;4993095;28;20215;-43
2023/11/29 07:38:42;;;;;;;4.35;2.60;;;5.70;91.80;;;;;;4992125;28;20217;-46
2023/11/29 07:41:12;;;;;;;3.72;2.47;;;5.70;91.80;;;;;;4990081;28;20600;-47
2023/11/29 07:43:43;;;;;;;3.35;2.40;;;5.70;91.80;;;;;;4992985;28;20468;-45
2023/11/29 07:46:12;;;;;;;2.90;2.33;;;5.70;91.90;;;;;;4994447;28;20233;-46
2023/11/29 07:48:40;;;;;;;3.47;2.00;;;5.70;91.80;;;;;;4993904;28;20238;-45
2023/11/29 07:51:11;;;;;;;3.33;2.22;;;5.70;91.90;;;;;;4988622;28;20310;-45
2023/11/29 07:53:39;;;;;;;3.88;2.38;;;5.70;92.30;;;;;;4977403;28;20668;-45
2023/11/29 07:56:09;;;;;;;4.97;2.55;;;5.70;91.90;;;;;;4991642;28;20222;-46
2023/11/29 07:58:38;;;;;;;2.22;1.80;;;5.70;92.00;;;;;;4995419;28;20226;-46
2023/11/29 08:01:06;;;;;;;3.28;1.60;;;5.70;91.90;;;;;;4995018;28;20683;-44
2023/11/29 08:03:35;;;;;;;3.85;2.75;;;5.70;91.90;;;;;;4987723;28;20290;-48
2023/11/29 08:06:04;;;;;;;3.88;2.20;;;5.70;92.00;;;;;;4992088;28;20422;-43
2023/11/29 08:08:33;;;;;;;2.75;2.03;;;5.70;91.90;;;;;;4996169;28;20260;-44
2023/11/29 08:11:01;;;;;;;2.22;1.70;;;5.70;92.00;;;;;;4990637;28;20301;-45
2023/11/29 08:13:33;;;;;;;3.03;2.17;;;5.70;92.00;;;;;;4996438;28;20193;-44
2023/11/29 08:16:01;;;;;;;2.40;1.75;;;5.70;92.00;;;;;;4991805;28;20574;-43
2023/11/29 08:18:30;;;;;;;3.90;2.30;;;5.70;91.90;;;;;;4998466;28;20218;-44
2023/11/29 08:20:58;;;;;;;3.05;2.33;;;5.70;91.90;;;;;;4997046;28;20217;-45
2023/11/29 08:23:26;;;;;;;2.55;1.80;;;5.70;91.90;;;;;;4996482;28;20252;-44
2023/11/29 08:25:54;;;;;;;2.33;1.85;;;5.70;91.90;;;;;;4994659;28;20628;-44
2023/11/29 08:28:25;;;;;;;3.47;1.65;;;5.70;91.90;;;;;;5000975;28;20218;-45
2023/11/29 08:30:55;;;;;;;3.25;2.33;;;5.70;91.90;;;;;;4995509;28;20245;-44
2023/11/29 08:33:23;;;;;;;2.13;1.75;;;5.70;92.00;;;;;;4993612;28;20198;-46
2023/11/29 08:35:51;;;;;;;3.47;2.20;;;5.70;92.00;;;;;;4993958;28;20301;-43
2023/11/29 08:38:19;;;;;;;4.07;2.08;;;5.70;92.00;;;;;;4995565;28;20653;-46
2023/11/29 08:40:47;;;;;;;2.70;1.90;;;5.70;91.90;;;;;;4991989;28;20311;-45
2023/11/29 08:43:15;;;;;;;3.40;2.22;;;5.70;92.00;;;;;;4996186;28;20257;-44
2023/11/29 08:45:51;;;;;;;3.22;1.90;;;5.70;92.10;;;;;;5000420;28;20717;-44
2023/11/29 08:48:20;;;;;;;2.33;1.63;;;5.70;92.10;;;;;;5000095;28;20221;-44
2023/11/29 08:50:53;;;;;;;2.67;2.22;;;5.70;92.10;;;;;;4995283;28;20232;-44
2023/11/29 08:53:22;;;;;;;3.67;1.75;;;5.70;92.10;;;;;;5000158;28;20563;-44
2023/11/29 08:56:15;;;;;;;2.60;2.40;;;5.70;92.00;;;;;;4994789;28;20642;-46
2023/11/29 08:58:44;;;;;;;2.47;1.90;;;5.70;92.10;;;;;;4992807;28;20238;-44
2023/11/29 09:01:14;;;;;;;3.53;1.88;;;5.70;92.10;;;;;;4981115;28;20225;-46
2023/11/29 09:03:44;;;;;;;2.55;1.50;;;5.70;92.10;;;;;;4995096;28;20740;-45
2023/11/29 09:06:18;;;;;;;3.20;2.20;;;5.70;92.10;;;;;;5000011;28;20269;-44
2023/11/29 09:08:47;;;;;;;3.40;1.75;;;5.70;92.00;;;;;;4996175;28;20321;-45
2023/11/29 09:11:15;;;;;;;2.97;1.92;;;5.70;92.10;;;;;;4995330;28;20210;-45
2023/11/29 09:13:44;;;;;;;2.50;2.10;;;5.70;92.10;;;;;;4996307;28;20187;-43
2023/11/29 09:16:12;;;;;;;3.30;2.28;;;5.70;92.10;;;;;;4981948;28;20214;-45
2023/11/29 09:18:40;;;;;;;2.55;1.75;;;5.70;92.20;;;;;;4997624;28;20215;-45
2023/11/29 09:21:12;;;;;;;3.05;2.30;;;5.70;92.20;;;;;;4992201;28;20297;-45
2023/11/29 09:23:40;;;;;;;3.17;2.10;;;5.70;92.30;;;;;;4998657;28;20277;-44
2023/11/29 09:26:08;;;;;;;2.40;1.98;;;5.70;92.20;;;;;;4977952;28;20224;-43
2023/11/29 09:28:39;;;;;;;2.72;2.10;;;5.70;92.30;;;;;;4998637;28;20402;-44
2023/11/29 09:31:13;;;;;;;4.20;2.28;;;5.70;92.30;;;;;;4998337;28;20223;-44
2023/11/29 09:33:42;;;;;;;3.97;2.30;;;5.70;92.30;;;;;;5003029;28;20214;-45
2023/11/29 09:36:12;;;;;;;2.20;1.80;;;5.70;92.30;;;;;;4992254;28;20218;-44
2023/11/29 09:38:40;;;;;;;2.63;2.00;;;5.70;92.80;;;;;;4995953;28;20273;-49
2023/11/29 09:41:10;;;;;;;2.03;1.50;;;5.70;92.30;;;;;;4989756;28;20358;-45
2023/11/29 09:43:40;;;;;;;2.00;1.80;;;5.70;92.30;;;;;;4995233;28;20210;-45
2023/11/29 09:46:10;;;;;;;1.92;1.50;;;5.70;92.30;;;;;;4998683;28;20288;-44
2023/11/29 09:48:42;;;;;;;3.08;2.22;;;5.70;92.30;;;;;;4989896;28;20211;-44
2023/11/29 09:51:16;;;;;;;2.95;2.30;;;5.70;92.30;;;;;;4994117;28;20273;-44
2023/11/29 09:53:44;;;;;;;2.72;1.80;;;5.70;92.80;;;;;;5001616;28;20186;-45
2023/11/29 09:56:12;;;;;;;3.30;2.55;;;5.70;92.30;;;;;;5003729;28;20228;-46
2023/11/29 09:58:40;;;;;;;3.50;2.40;;;5.70;92.30;;;;;;5000388;28;20218;-45
2023/11/29 10:01:09;;;;;;;2.35;1.95;;;5.70;92.30;;;;;;4997906;28;20639;-45
2023/11/29 10:03:37;;;;;;;2.30;1.60;;;5.70;92.30;;;;;;4978334;28;20318;-46
2023/11/29 10:06:06;;;;;;;3.03;2.60;;;5.70;92.30;;;;;;4992717;28;20273;-43
2023/11/29 10:08:37;;;;;;;4.20;2.20;;;5.70;92.30;;;;;;4998799;28;20264;-44
2023/11/29 10:11:08;;;;;;;2.00;1.83;;;5.70;92.30;;;;;;4993559;28;20241;-47
2023/11/29 10:13:36;;;;;;;3.03;2.00;;;5.70;92.30;;;;;;4998547;28;20213;-45
2023/11/29 10:16:08;;;;;;;2.28;1.67;;;5.70;92.30;;;;;;4997552;28;20210;-46
2023/11/29 10:18:36;;;;;;;3.08;1.80;;;5.70;92.30;;;;;;4996129;28;20221;-44
2023/11/29 10:21:06;;;;;;;2.28;1.73;;;5.70;92.30;;;;;;4994475;28;20214;-44
2023/11/29 10:23:40;;;;;;;2.25;1.88;;;5.70;92.30;;;;;;4998000;28;20301;-46
2023/11/29 10:26:08;;;;;;;2.22;1.92;;;5.70;92.30;;;;;;4993475;28;20232;-45
2023/11/29 10:28:36;;;;;;;2.15;1.95;;;5.70;92.70;;;;;;4995811;28;20226;-45
2023/11/29 10:31:08;;;;;;;2.65;2.35;;;5.70;92.20;;;;;;4996156;28;20249;-45
2023/11/29 10:33:39;;;;;;;3.50;2.60;;;5.70;92.20;;;;;;4978199;28;20198;-45
2023/11/29 10:36:08;;;;;;;2.92;2.38;;;5.70;92.30;;;;;;4993437;28;20246;-44
2023/11/29 10:38:43;;;;;;;2.70;2.22;;;5.70;92.30;;;;;;4997013;28;20572;-45
2023/11/29 10:41:16;;;;;;;3.13;2.22;;;5.70;92.30;;;;;;4991244;28;20688;-45
2023/11/29 10:43:48;;;;;;;2.50;1.88;;;5.70;92.30;;;;;;4993772;28;20588;-44
2023/11/29 10:46:23;;;;;;;2.05;1.42;;;5.70;92.30;;;;;;4984342;28;20214;-44
2023/11/29 10:48:58;;;;;;;2.67;1.90;;;5.70;92.30;;;;;;4990686;28;20222;-44
2023/11/29 10:51:26;;;;;;;3.28;2.00;;;5.70;92.20;;;;;;4994166;28;20233;-44
2023/11/29 10:53:58;;;;;;;3.20;1.65;;;5.70;92.30;;;;;;4997103;28;20653;-45
2023/11/29 10:56:27;;;;;;;4.38;1.77;;;5.70;92.30;;;;;;4984284;28;20728;-44
2023/11/29 10:59:10;;;;;;;2.20;1.55;;;5.70;92.30;;;;;;4996920;28;20214;-45
2023/11/29 11:01:41;;;;;;;2.10;1.60;;;5.70;92.30;;;;;;4995019;28;20218;-44
2023/11/29 11:04:10;;;;;;;3.85;2.65;;;5.70;92.30;;;;;;4997451;28;20452;-43
2023/11/29 11:06:42;;;;;;;3.15;2.17;;;5.70;92.60;;;;;;4976594;28;20457;-44
2023/11/29 11:09:44;;;;;;;6.13;2.67;;;5.70;92.40;;;;;;4998178;28;20210;-44
2023/11/29 11:12:33;;;;;;;3.80;2.15;;;5.70;92.50;;;;;;5013099;28;20228;-47
2023/11/29 11:15:07;;;;;;;3.50;2.25;;;5.70;92.50;;;;;;5016130;28;20263;-45
2023/11/29 11:17:36;;;;;;;2.45;2.15;;;5.70;92.50;;;;;;5017140;28;20224;-44
2023/11/29 11:20:08;;;;;;;2.03;1.55;;;5.70;92.60;;;;;;5016099;28;20225;-43
2023/11/29 11:22:42;;;;;;;3.13;2.17;;;5.70;92.60;;;;;;5011876;28;20528;-44
2023/11/29 11:25:16;;;;;;;3.05;1.85;;;5.70;92.70;;;;;;5013090;28;20316;-48
2023/11/29 11:27:48;;;;;;;2.20;1.50;;;5.70;92.60;;;;;;5012678;28;20251;-43
2023/11/29 11:30:41;;;;;;;2.35;1.88;;;5.70;92.50;;;;;;5014835;28;20225;-44
2023/11/29 11:33:12;;;;;;;2.17;1.55;;;5.70;92.50;;;;;;5012360;28;20585;-44
2023/11/29 11:35:42;;;;;;;2.15;1.95;;;5.70;92.50;;;;;;5010990;28;20225;-45
2023/11/29 11:38:11;;;;;;;2.50;1.70;;;5.70;92.50;;;;;;5016152;28;20220;-45
2023/11/29 11:40:42;;;;;;;2.75;1.90;;;5.70;92.50;;;;;;5008970;28;20242;-46
2023/11/29 11:43:11;;;;;;;3.60;2.05;;;5.70;92.50;;;;;;5015217;28;20269;-45
2023/11/29 11:45:40;;;;;;;2.70;1.75;;;5.70;92.50;;;;;;5012739;28;20240;-43
2023/11/29 11:48:08;;;;;;;3.60;1.90;;;5.70;92.50;;;;;;5015186;28;20260;-45
2023/11/29 11:50:37;;;;;;;3.20;2.00;;;5.70;92.50;;;;;;5008369;28;20722;-44
2023/11/29 11:53:06;;;;;;;3.15;2.10;;;5.70;92.60;;;;;;5016531;28;20190;-45
2023/11/29 11:55:42;;;;;;;2.85;2.55;;;5.70;92.60;;;;;;5009821;28;20229;-45
2023/11/29 11:58:11;;;;;;;3.10;1.65;;;5.70;92.50;;;;;;5013974;28;20223;-44
2023/11/29 12:00:40;;;;;;;2.42;1.77;;;5.70;92.40;;;;;;5016184;28;20251;-43
2023/11/29 12:03:11;;;;;;;1.88;1.48;;;5.70;92.40;;;;;;5013480;28;20194;-44
2023/11/29 12:05:39;;;;;;;2.33;1.63;;;5.70;92.40;;;;;;5013392;28;20218;-47
2023/11/29 12:08:09;;;;;;;3.58;2.00;;;5.70;92.50;;;;;;5017048;28;20226;-44
2023/11/29 12:10:40;;;;;;;3.55;1.30;;;5.70;92.50;;;;;;5010445;28;20226;-44
2023/11/29 12:13:08;;;;;;;2.60;2.00;;;5.70;92.40;;;;;;5017355;28;20237;-45
2023/11/29 12:15:37;;;;;;;3.15;2.00;;;5.70;92.40;;;;;;5011485;28;20232;-46
2023/11/29 12:18:14;;;;;;;1.95;1.67;;;5.70;92.40;;;;;;5013364;28;20212;-45
2023/11/29 12:20:48;;;;;;;3.33;1.83;;;5.70;92.40;;;;;;5014784;28;20284;-44
2023/11/29 12:23:28;;;;;;;2.08;1.45;;;5.70;92.40;;;;;;5015562;28;20201;-44
2023/11/29 12:25:58;;;;;;;3.50;1.55;;;5.70;92.40;;;;;;5007851;28;20210;-47
2023/11/29 12:28:28;;;;;;;1.85;1.50;;;5.70;92.50;;;;;;5014271;28;20213;-45
2023/11/29 12:30:58;;;;;;;2.53;1.50;;;5.70;92.40;;;;;;5014916;28;20291;-45
2023/11/29 12:33:27;;;;;;;2.90;2.20;;;5.70;92.50;;;;;;5010538;28;20239;-44
2023/11/29 12:35:55;;;;;;;2.10;1.30;;;5.70;92.60;;;;;;5009771;28;20307;-43
2023/11/29 12:38:24;;;;;;;2.97;1.40;;;5.70;92.50;;;;;;5015791;28;20210;-44
2023/11/29 12:40:52;;;;;;;2.65;1.55;;;5.70;92.60;;;;;;5006141;28;20301;-44
2023/11/29 12:43:22;;;;;;;2.28;1.88;;;5.70;92.50;;;;;;5012740;28;20202;-44
2023/11/29 12:45:50;;;;;;;2.03;1.73;;;5.70;92.60;;;;;;5015212;28;20229;-47
2023/11/29 12:48:18;;;;;;;2.55;1.63;;;5.70;92.50;;;;;;5013220;28;20210;-46
2023/11/29 12:50:52;;;;;;;1.67;1.33;;;5.70;92.50;;;;;;5009773;28;20224;-44
2023/11/29 12:53:20;;;;;;;2.05;1.55;;;5.70;92.50;;;;;;5019481;28;20247;-46
2023/11/29 12:55:48;;;;;;;2.15;1.50;;;5.70;92.40;;;;;;5011497;28;20218;-47
2023/11/29 12:58:16;;;;;;;1.90;1.60;;;5.70;92.50;;;;;;5017877;28;20634;-48
2023/11/29 13:00:46;;;;;;;1.88;1.38;;;5.70;92.50;;;;;;5013510;28;20209;-46
2023/11/29 13:03:14;;;;;;;2.75;1.38;;;5.70;92.50;;;;;;5021203;28;20190;-44
2023/11/29 13:05:42;;;;;;;3.88;1.35;;;5.70;92.60;;;;;;5015872;28;20222;-45
2023/11/29 13:08:11;;;;;;;2.45;1.40;;;5.70;92.50;;;;;;5019946;28;20218;-45
2023/11/29 13:10:39;;;;;;;2.03;1.42;;;5.70;92.50;;;;;;5013032;28;20230;-44